Blyton, Illinois
Current Conditions -  °F | °C
As of 12:15 AM on Thursday 23 Oct 2014 (Local Time) from KMQB Reporting Station
Clear Clear  
Wind Chill: 33°   Ceiling: Unl
Heat Index: 39°   Visibility: 10mi
Dew Point: 35°   Wind: 8mph
Humidity: 87%   Direction: 150°SSE
Pressure: 30.23"   Gusts: NA
Location:  40.4895°N, 90.2827°W
Report Text: KMQB 230515Z AUTO 15007KT 10SM CLR 04/02 A3023 RMK AO2 T00370017
Loading
Personal Weather Stations






























Interactive Weather Map
Tropical Storm Tracking
New forecast layout! Learn more

10-Day Weather Forecast

Advertisements
Track Severe Weather on mobile